Revere, MN (56166)

10:33 AM CDT on July 03, 2015 (GMT -0500)
Rural Lamberton | Change Station
CLOSE
Current Station
Personal Weather Station
Location: Lamberton, MN
Elevation: 1132 ft
Nearby Weather Stations

Elev 1132 ft 44.23 °N, 95.30 °W | Updated 47 seconds ago

Clear
Clear
71.4 °F
Feels Like 75 °F
N
4.5
Wind Variable Wind from West
Gusts 5.8 mph

Today
High -- | Low -- °F
--% Chance of Precip.
Yesterday
High -- | Low -- °F
Precip. -- in
5:42 AM 9:08 PM
Full, 97% visible
Pressure 30.00 in
Visibility 10.0 miles
Clouds Clear
Heat Index 75 °F
Dew Point 60 °F
Humidity 67%
Rainfall 0.00 in
Snow Depth Not available.
UV 4.0 out of 12
Pollen 3.90 out of 12
Air Quality Not available.
Flu Activity Not available.
METAR KTKC 031512Z AUTO 25004KT 10SM CLR 21/15 A3000 RMK AO2 T02100149

More Conditions Fewer Conditions

Pressure 30.00 in
Visibility 10.0 miles
Clouds Clear
Heat Index 75 °F
Dew Point 60 °F
Humidity 67%
Rainfall 0.00 in
Snow Depth Not available.
UV 4.0 out of 12
Pollen 3.90 out of 12
Air Quality Not available.
Flu Activity Not available.
METAR KTKC 031512Z AUTO 25004KT 10SM CLR 21/15 A3000 RMK AO2 T02100149

More Conditions Fewer Conditions

10-Day Weather Forecast

Almanac

Astronomy

Jul. 03, 2015 Rise Set
Actual Time 5:42 AM CDT 9:08 PM CDT
Civil Twilight 5:06 AM CDT 9:44 PM CDT
Nautical Twilight 4:18 AM CDT 10:32 PM CDT
Astronomical Twilight 3:18 AM CDT 11:31 PM CDT
Moon 10:11 PM CDT 7:37 AM CDT
Length of Visible Light 16h 38m
Length of Day
15h 25m
Tomorrow will be 0m 53s shorter.
Full, 97% of the Moon is Illuminated
Today
Full
Jul 8
Last Quarter
Jul 15
New
Jul 24
First Quarter
Jul 31
Full

Today's Extremes

State Highs State Lows

Community

WunderPhotos

Upload Photos

1,834,679 photos uploaded!

Nearby

Snow Depth

Station Depth Elevation
No new snow has been reported.

Earthquake Activity

City Distance Mag. Time & Date
No recent earthquake activity has been reported nearby.
Minimum magnitude displayed is 2.5.

Coastal Water Temperatures

Place Temperature
No Stations Reporting

Nearby Weather Stations